sensor_id;sensor_type;location;lat;lon;timestamp;pressure;altitude;pressure_sealevel;temperature;humidity
49949;BME280;35840;45.982;8.890;2023-02-28T00:00:21;98844.69;;;4.38;79.64
49949;BME280;35840;45.982;8.890;2023-02-28T00:02:48;98839.63;;;4.37;79.43
49949;BME280;35840;45.982;8.890;2023-02-28T00:05:17;98854.19;;;4.31;79.12
49949;BME280;35840;45.982;8.890;2023-02-28T00:07:44;98851.69;;;4.30;80.35
49949;BME280;35840;45.982;8.890;2023-02-28T00:10:14;98852.59;;;4.27;79.78
49949;BME280;35840;45.982;8.890;2023-02-28T00:12:41;98845.91;;;4.23;80.00
49949;BME280;35840;45.982;8.890;2023-02-28T00:15:09;98862.91;;;4.23;80.54
49949;BME280;35840;45.982;8.890;2023-02-28T00:17:37;98857.69;;;4.27;80.59
49949;BME280;35840;45.982;8.890;2023-02-28T00:20:05;98857.63;;;4.29;79.57
49949;BME280;35840;45.982;8.890;2023-02-28T00:22:40;98865.19;;;4.32;79.90
49949;BME280;35840;45.982;8.890;2023-02-28T00:25:08;98858.38;;;4.34;79.38
49949;BME280;35840;45.982;8.890;2023-02-28T00:27:36;98860.00;;;4.35;79.43
49949;BME280;35840;45.982;8.890;2023-02-28T00:30:05;98849.19;;;4.28;80.32
49949;BME280;35840;45.982;8.890;2023-02-28T00:32:32;98856.88;;;4.27;80.39
49949;BME280;35840;45.982;8.890;2023-02-28T00:35:01;98863.66;;;4.26;80.54
49949;BME280;35840;45.982;8.890;2023-02-28T00:37:28;98853.50;;;4.25;79.97
49949;BME280;35840;45.982;8.890;2023-02-28T00:39:55;98855.97;;;4.28;80.30
49949;BME280;35840;45.982;8.890;2023-02-28T00:42:23;98855.09;;;4.29;80.10
49949;BME280;35840;45.982;8.890;2023-02-28T00:44:49;98860.19;;;4.29;80.44
49949;BME280;35840;45.982;8.890;2023-02-28T00:47:16;98855.00;;;4.32;80.51
49949;BME280;35840;45.982;8.890;2023-02-28T00:49:43;98866.03;;;4.33;80.51
49949;BME280;35840;45.982;8.890;2023-02-28T00:52:10;98858.47;;;4.29;80.37
49949;BME280;35840;45.982;8.890;2023-02-28T00:54:37;98857.69;;;4.27;80.79
49949;BME280;35840;45.982;8.890;2023-02-28T00:57:04;98856.28;;;4.17;80.65
49949;BME280;35840;45.982;8.890;2023-02-28T00:59:31;98855.41;;;4.17;80.57
49949;BME280;35840;45.982;8.890;2023-02-28T01:01:57;98861.34;;;4.17;81.30
49949;BME280;35840;45.982;8.890;2023-02-28T01:04:24;98858.97;;;4.11;80.45
49949;BME280;35840;45.982;8.890;2023-02-28T01:06:51;98848.88;;;4.08;80.10
49949;BME280;35840;45.982;8.890;2023-02-28T01:09:18;98851.50;;;4.05;79.01
49949;BME280;35840;45.982;8.890;2023-02-28T01:11:45;98857.38;;;4.07;79.07
49949;BME280;35840;45.982;8.890;2023-02-28T01:14:16;98863.22;;;4.10;78.66
49949;BME280;35840;45.982;8.890;2023-02-28T01:16:44;98862.28;;;4.14;77.82
49949;BME280;35840;45.982;8.890;2023-02-28T01:19:11;98863.22;;;4.10;77.92
49949;BME280;35840;45.982;8.890;2023-02-28T01:21:38;98847.19;;;4.07;78.67
49949;BME280;35840;45.982;8.890;2023-02-28T01:24:05;98845.53;;;4.06;78.58
49949;BME280;35840;45.982;8.890;2023-02-28T01:26:34;98850.66;;;4.04;78.46
49949;BME280;35840;45.982;8.890;2023-02-28T01:29:01;98858.19;;;4.09;78.88
49949;BME280;35840;45.982;8.890;2023-02-28T01:31:28;98853.03;;;4.10;80.04
49949;BME280;35840;45.982;8.890;2023-02-28T01:33:55;98852.97;;;4.13;80.94
49949;BME280;35840;45.982;8.890;2023-02-28T01:36:26;98850.31;;;4.17;81.04
49949;BME280;35840;45.982;8.890;2023-02-28T01:38:55;98845.25;;;4.17;81.05
49949;BME280;35840;45.982;8.890;2023-02-28T01:41:31;98843.59;;;4.16;79.61
49949;BME280;35840;45.982;8.890;2023-02-28T01:44:06;98850.44;;;4.12;79.90
49949;BME280;35840;45.982;8.890;2023-02-28T01:46:35;98849.72;;;4.07;79.53
49949;BME280;35840;45.982;8.890;2023-02-28T01:49:09;98853.03;;;4.10;79.14
49949;BME280;35840;45.982;8.890;2023-02-28T01:51:48;98846.31;;;4.08;79.09
49949;BME280;35840;45.982;8.890;2023-02-28T01:54:22;98848.03;;;4.07;79.02
49949;BME280;35840;45.982;8.890;2023-02-28T01:56:55;98842.81;;;4.12;79.38
49949;BME280;35840;45.982;8.890;2023-02-28T02:01:58;98846.41;;;4.05;80.92
49949;BME280;35840;45.982;8.890;2023-02-28T02:04:32;98852.22;;;4.10;81.44
49949;BME280;35840;45.982;8.890;2023-02-28T02:07:01;98849.72;;;4.08;81.53
49949;BME280;35840;45.982;8.890;2023-02-28T02:09:29;98845.53;;;4.06;81.41
49949;BME280;35840;45.982;8.890;2023-02-28T02:11:56;98843.13;;;4.00;81.31
49949;BME280;35840;45.982;8.890;2023-02-28T02:14:48;98852.34;;;4.04;80.85
49949;BME280;35840;45.982;8.890;2023-02-28T02:17:30;98835.06;;;3.84;80.39
49949;BME280;35840;45.982;8.890;2023-02-28T02:23:19;98839.09;;;3.92;81.31
49949;BME280;35840;45.982;8.890;2023-02-28T02:25:56;98835.63;;;3.95;81.66
49949;BME280;35840;45.982;8.890;2023-02-28T02:28:50;98832.31;;;3.93;81.17
49949;BME280;35840;45.982;8.890;2023-02-28T02:39:48;98846.50;;;4.02;80.93
49949;BME280;35840;45.982;8.890;2023-02-28T02:42:28;98846.50;;;4.02;82.18
49949;BME280;35840;45.982;8.890;2023-02-28T02:45:06;98841.41;;;4.02;82.77
49949;BME280;35840;45.982;8.890;2023-02-28T02:47:35;98838.03;;;4.00;82.09
49949;BME280;35840;45.982;8.890;2023-02-28T02:50:05;98837.22;;;3.99;82.36
49949;BME280;35840;45.982;8.890;2023-02-28T02:52:41;98845.03;;;3.93;83.01
49949;BME280;35840;45.982;8.890;2023-02-28T02:55:12;98840.81;;;3.92;82.39
49949;BME280;35840;45.982;8.890;2023-02-28T02:57:48;98844.94;;;3.96;82.10
49949;BME280;35840;45.982;8.890;2023-02-28T03:00:20;98851.66;;;3.99;82.05
49949;BME280;35840;45.982;8.890;2023-02-28T03:02:50;98839.03;;;3.94;81.74
49949;BME280;35840;45.982;8.890;2023-02-28T03:05:23;98837.47;;;3.90;81.27
49949;BME280;35840;45.982;8.890;2023-02-28T03:07:52;98840.94;;;3.87;81.96
49949;BME280;35840;45.982;8.890;2023-02-28T03:10:34;98846.97;;;3.83;81.65
49949;BME280;35840;45.982;8.890;2023-02-28T03:21:14;98842.53;;;3.91;81.64
49949;BME280;35840;45.982;8.890;2023-02-28T03:24:13;98847.47;;;3.96;80.96
49949;BME280;35840;45.982;8.890;2023-02-28T03:26:42;98840.75;;;3.93;80.17
49949;BME280;35840;45.982;8.890;2023-02-28T03:32:02;98846.19;;;3.79;80.55
49949;BME280;35840;45.982;8.890;2023-02-28T03:34:38;98850.44;;;3.79;81.44
49949;BME280;35840;45.982;8.890;2023-02-28T03:37:08;98857.22;;;3.80;79.88
49949;BME280;35840;45.982;8.890;2023-02-28T03:39:42;98849.59;;;3.80;80.22
49949;BME280;35840;45.982;8.890;2023-02-28T03:42:23;98855.53;;;3.79;80.56
49949;BME280;35840;45.982;8.890;2023-02-28T03:44:58;98850.63;;;3.71;80.68
49949;BME280;35840;45.982;8.890;2023-02-28T03:47:27;98852.38;;;3.69;81.72
49949;BME280;35840;45.982;8.890;2023-02-28T03:52:57;98855.88;;;3.65;83.23
49949;BME280;35840;45.982;8.890;2023-02-28T03:55:36;98855.81;;;3.67;82.79
49949;BME280;35840;45.982;8.890;2023-02-28T03:58:12;98859.97;;;3.71;83.07
49949;BME280;35840;45.982;8.890;2023-02-28T04:00:47;98857.50;;;3.68;82.73
49949;BME280;35840;45.982;8.890;2023-02-28T04:03:16;98855.91;;;3.64;82.11
49949;BME280;35840;45.982;8.890;2023-02-28T04:05:55;98866.06;;;3.64;82.55
49949;BME280;35840;45.982;8.890;2023-02-28T04:08:23;98861.00;;;3.64;82.53
49949;BME280;35840;45.982;8.890;2023-02-28T04:11:08;98863.34;;;3.71;82.62
49949;BME280;35840;45.982;8.890;2023-02-28T04:13:39;98861.53;;;3.76;81.90
49949;BME280;35840;45.982;8.890;2023-02-28T04:16:09;98854.81;;;3.74;82.16
49949;BME280;35840;45.982;8.890;2023-02-28T04:18:50;98865.63;;;3.82;81.92
49949;BME280;35840;45.982;8.890;2023-02-28T04:21:16;98848.97;;;3.70;81.79
49949;BME280;35840;45.982;8.890;2023-02-28T04:23:47;98873.38;;;3.77;82.15
49949;BME280;35840;45.982;8.890;2023-02-28T04:26:13;98865.34;;;3.58;82.73
49949;BME280;35840;45.982;8.890;2023-02-28T04:28:40;98860.22;;;3.61;82.68
49949;BME280;35840;45.982;8.890;2023-02-28T04:31:07;98871.28;;;3.59;82.14
49949;BME280;35840;45.982;8.890;2023-02-28T04:33:33;98866.56;;;3.43;83.11
49949;BME280;35840;45.982;8.890;2023-02-28T04:36:02;98862.25;;;3.45;83.33
49949;BME280;35840;45.982;8.890;2023-02-28T04:38:34;98860.53;;;3.48;83.77
49949;BME280;35840;45.982;8.890;2023-02-28T04:41:01;98868.81;;;3.54;83.55
49949;BME280;35840;45.982;8.890;2023-02-28T04:43:29;98872.97;;;3.58;83.04
49949;BME280;35840;45.982;8.890;2023-02-28T04:45:57;98872.91;;;3.61;82.91
49949;BME280;35840;45.982;8.890;2023-02-28T04:48:26;98876.38;;;3.59;83.11
49949;BME280;35840;45.982;8.890;2023-02-28T04:50:54;98877.31;;;3.55;83.00
49949;BME280;35840;45.982;8.890;2023-02-28T04:53:21;98875.59;;;3.55;82.13
49949;BME280;35840;45.982;8.890;2023-02-28T04:55:48;98876.53;;;3.51;81.92
49949;BME280;35840;45.982;8.890;2023-02-28T04:58:14;98883.22;;;3.55;82.59
49949;BME280;35840;45.982;8.890;2023-02-28T05:00:41;98868.06;;;3.51;82.98
49949;BME280;35840;45.982;8.890;2023-02-28T05:03:08;98884.16;;;3.51;83.62
49949;BME280;35840;45.982;8.890;2023-02-28T05:05:36;98879.88;;;3.53;83.44
49949;BME280;35840;45.982;8.890;2023-02-28T05:08:02;98878.13;;;3.55;82.82
49949;BME280;35840;45.982;8.890;2023-02-28T05:10:29;98885.69;;;3.58;82.71
49949;BME280;35840;45.982;8.890;2023-02-28T05:12:56;98885.56;;;3.65;83.14
49949;BME280;35840;45.982;8.890;2023-02-28T05:15:23;98892.28;;;3.66;82.56
49949;BME280;35840;45.982;8.890;2023-02-28T05:17:50;98890.53;;;3.69;82.69
49949;BME280;35840;45.982;8.890;2023-02-28T05:20:16;98892.19;;;3.70;82.45
49949;BME280;35840;45.982;8.890;2023-02-28T05:22:44;98891.34;;;3.70;82.33
49949;BME280;35840;45.982;8.890;2023-02-28T05:25:15;98892.25;;;3.69;83.04
49949;BME280;35840;45.982;8.890;2023-02-28T05:27:42;98887.34;;;3.59;82.50
49949;BME280;35840;45.982;8.890;2023-02-28T05:30:09;98887.41;;;3.58;82.86
49949;BME280;35840;45.982;8.890;2023-02-28T05:32:38;98886.63;;;3.56;83.16
49949;BME280;35840;45.982;8.890;2023-02-28T05:35:05;98876.44;;;3.56;82.95
49949;BME280;35840;45.982;8.890;2023-02-28T05:37:32;98887.34;;;3.59;83.15
49949;BME280;35840;45.982;8.890;2023-02-28T05:39:59;98886.63;;;3.54;84.15
49949;BME280;35840;45.982;8.890;2023-02-28T05:42:26;98883.91;;;3.62;83.58
49949;BME280;35840;45.982;8.890;2023-02-28T05:44:52;98867.97;;;3.55;83.63
49949;BME280;35840;45.982;8.890;2023-02-28T05:47:19;98893.19;;;3.65;84.04
49949;BME280;35840;45.982;8.890;2023-02-28T05:49:46;98882.16;;;3.64;84.13
49949;BME280;35840;45.982;8.890;2023-02-28T05:52:13;98886.50;;;3.60;83.59
49949;BME280;35840;45.982;8.890;2023-02-28T05:54:40;98884.75;;;3.62;83.65
49949;BME280;35840;45.982;8.890;2023-02-28T05:57:07;98875.34;;;3.66;83.08
49949;BME280;35840;45.982;8.890;2023-02-28T05:59:44;98881.19;;;3.70;83.71
49949;BME280;35840;45.982;8.890;2023-02-28T06:02:13;98873.63;;;3.67;83.70
49949;BME280;35840;45.982;8.890;2023-02-28T06:04:40;98884.53;;;3.72;83.85
49949;BME280;35840;45.982;8.890;2023-02-28T06:07:08;98880.34;;;3.69;83.00
49949;BME280;35840;45.982;8.890;2023-02-28T06:09:36;98885.47;;;3.68;83.48
49949;BME280;35840;45.982;8.890;2023-02-28T06:12:04;98881.22;;;3.68;82.99
49949;BME280;35840;45.982;8.890;2023-02-28T06:14:33;98884.63;;;3.69;83.74
49949;BME280;35840;45.982;8.890;2023-02-28T06:17:00;98885.31;;;3.74;83.11
49949;BME280;35840;45.982;8.890;2023-02-28T06:19:27;98882.81;;;3.72;82.67
49949;BME280;35840;45.982;8.890;2023-02-28T06:21:55;98890.38;;;3.75;82.16
49949;BME280;35840;45.982;8.890;2023-02-28T06:24:24;98901.50;;;3.70;82.43
49949;BME280;35840;45.982;8.890;2023-02-28T06:26:51;98895.34;;;3.44;83.37
49949;BME280;35840;45.982;8.890;2023-02-28T06:29:18;98891.19;;;3.40;83.46
49949;BME280;35840;45.982;8.890;2023-02-28T06:31:46;98898.00;;;3.39;84.01
49949;BME280;35840;45.982;8.890;2023-02-28T06:34:13;98912.13;;;3.51;84.25
49949;BME280;35840;45.982;8.890;2023-02-28T06:36:41;98911.97;;;3.59;84.08
49949;BME280;35840;45.982;8.890;2023-02-28T06:39:08;98912.78;;;3.59;83.86
49949;BME280;35840;45.982;8.890;2023-02-28T06:41:36;98915.41;;;3.56;83.47
49949;BME280;35840;45.982;8.890;2023-02-28T06:44:20;98907.81;;;3.55;83.92
49949;BME280;35840;45.982;8.890;2023-02-28T06:46:48;98917.75;;;3.64;83.40
49949;BME280;35840;45.982;8.890;2023-02-28T06:49:16;98920.13;;;3.72;83.80
49949;BME280;35840;45.982;8.890;2023-02-28T06:51:44;98915.00;;;3.73;83.38
49949;BME280;35840;45.982;8.890;2023-02-28T06:54:13;98916.16;;;3.60;82.81
49949;BME280;35840;45.982;8.890;2023-02-28T06:56:40;98925.84;;;3.44;82.78
49949;BME280;35840;45.982;8.890;2023-02-28T06:59:07;98921.66;;;3.41;82.92
49949;BME280;35840;45.982;8.890;2023-02-28T07:01:34;98924.94;;;3.47;82.88
49949;BME280;35840;45.982;8.890;2023-02-28T07:04:00;98925.84;;;3.44;83.20
49949;BME280;35840;45.982;8.890;2023-02-28T07:06:27;98927.72;;;3.36;83.66
49949;BME280;35840;45.982;8.890;2023-02-28T07:08:54;98932.94;;;3.30;84.59
49949;BME280;35840;45.982;8.890;2023-02-28T07:11:23;98936.41;;;3.25;85.39
49949;BME280;35840;45.982;8.890;2023-02-28T07:13:55;98936.34;;;3.28;84.75
49949;BME280;35840;45.982;8.890;2023-02-28T07:16:23;98938.31;;;3.16;83.13
49949;BME280;35840;45.982;8.890;2023-02-28T07:18:54;98936.47;;;3.22;84.38
49949;BME280;35840;45.982;8.890;2023-02-28T07:21:22;98936.50;;;3.21;82.20
49949;BME280;35840;45.982;8.890;2023-02-28T07:23:49;98937.22;;;3.27;82.20
49949;BME280;35840;45.982;8.890;2023-02-28T07:26:17;98944.84;;;3.27;82.00
49949;BME280;35840;45.982;8.890;2023-02-28T07:28:46;98938.34;;;3.14;81.49
49949;BME280;35840;45.982;8.890;2023-02-28T07:31:14;98948.44;;;3.17;81.48
49949;BME280;35840;45.982;8.890;2023-02-28T07:33:42;98945.28;;;3.06;81.90
49949;BME280;35840;45.982;8.890;2023-02-28T07:36:14;98952.28;;;2.95;82.60
49949;BME280;35840;45.982;8.890;2023-02-28T07:38:43;98941.41;;;2.86;83.26
49949;BME280;35840;45.982;8.890;2023-02-28T07:41:14;98942.13;;;2.95;84.30
49949;BME280;35840;45.982;8.890;2023-02-28T07:43:42;98940.41;;;2.97;83.58
49949;BME280;35840;45.982;8.890;2023-02-28T07:46:11;98934.28;;;3.05;83.42
49949;BME280;35840;45.982;8.890;2023-02-28T07:48:38;98940.19;;;3.06;82.19
49949;BME280;35840;45.982;8.890;2023-02-28T07:51:05;98947.59;;;3.17;82.81
49949;BME280;35840;45.982;8.890;2023-02-28T07:53:32;98951.78;;;3.19;82.29
49949;BME280;35840;45.982;8.890;2023-02-28T07:56:00;98947.38;;;3.27;83.01
49949;BME280;35840;45.982;8.890;2023-02-28T07:58:29;98945.63;;;3.30;81.81
49949;BME280;35840;45.982;8.890;2023-02-28T08:00:57;98943.88;;;3.33;80.87
49949;BME280;35840;45.982;8.890;2023-02-28T08:03:24;98944.81;;;3.29;81.75
49949;BME280;35840;45.982;8.890;2023-02-28T08:05:51;98957.59;;;3.24;80.67
49949;BME280;35840;45.982;8.890;2023-02-28T08:08:19;98956.66;;;3.28;80.43
49949;BME280;35840;45.982;8.890;2023-02-28T08:10:45;98949.03;;;3.28;80.54
49949;BME280;35840;45.982;8.890;2023-02-28T08:13:12;98958.19;;;3.36;81.83
49949;BME280;35840;45.982;8.890;2023-02-28T08:15:41;98962.19;;;3.48;80.11
49949;BME280;35840;45.982;8.890;2023-02-28T08:18:08;98963.03;;;3.48;80.06
49949;BME280;35840;45.982;8.890;2023-02-28T08:20:35;98968.03;;;3.51;79.48
49949;BME280;35840;45.982;8.890;2023-02-28T08:23:02;98957.03;;;3.51;78.75
49949;BME280;35840;45.982;8.890;2023-02-28T08:25:28;98954.28;;;3.61;79.04
49949;BME280;35840;45.982;8.890;2023-02-28T08:27:55;98960.91;;;3.69;78.47
49949;BME280;35840;45.982;8.890;2023-02-28T08:30:22;98961.69;;;3.71;77.84
49949;BME280;35840;45.982;8.890;2023-02-28T08:32:49;98962.50;;;3.73;78.56
49949;BME280;35840;45.982;8.890;2023-02-28T08:35:15;98957.34;;;3.76;78.77
49949;BME280;35840;45.982;8.890;2023-02-28T08:37:42;98962.28;;;3.82;78.11
49949;BME280;35840;45.982;8.890;2023-02-28T08:40:09;98967.25;;;3.87;77.69
49949;BME280;35840;45.982;8.890;2023-02-28T08:42:36;98963.06;;;3.86;77.81
49949;BME280;35840;45.982;8.890;2023-02-28T08:45:03;98961.19;;;3.92;78.33
49949;BME280;35840;45.982;8.890;2023-02-28T08:47:30;98960.47;;;3.87;77.68
49949;BME280;35840;45.982;8.890;2023-02-28T08:49:57;98975.56;;;3.93;77.58
49949;BME280;35840;45.982;8.890;2023-02-28T08:52:24;98975.56;;;3.93;78.16
49949;BME280;35840;45.982;8.890;2023-02-28T08:54:50;98974.78;;;3.91;77.55
49949;BME280;35840;45.982;8.890;2023-02-28T08:57:17;98976.44;;;3.92;76.14
49949;BME280;35840;45.982;8.890;2023-02-28T08:59:44;98978.97;;;3.92;76.24
49949;BME280;35840;45.982;8.890;2023-02-28T09:02:13;98985.66;;;3.96;76.28
49949;BME280;35840;45.982;8.890;2023-02-28T09:04:41;98979.69;;;3.99;76.81
49949;BME280;35840;45.982;8.890;2023-02-28T09:07:07;98964.53;;;3.94;76.43
49949;BME280;35840;45.982;8.890;2023-02-28T09:09:34;98978.78;;;4.02;75.75
49949;BME280;35840;45.982;8.890;2023-02-28T09:12:01;98977.84;;;4.06;76.22
49949;BME280;35840;45.982;8.890;2023-02-28T09:14:28;98980.34;;;4.07;74.84
49949;BME280;35840;45.982;8.890;2023-02-28T09:16:55;98988.78;;;4.08;76.36
49949;BME280;35840;45.982;8.890;2023-02-28T09:19:22;98983.88;;;4.02;76.81
49949;BME280;35840;45.982;8.890;2023-02-28T09:21:48;98982.31;;;3.96;75.54
49949;BME280;35840;45.982;8.890;2023-02-28T09:24:15;98991.63;;;3.97;76.12
49949;BME280;35840;45.982;8.890;2023-02-28T09:26:42;98992.53;;;3.94;77.03
49949;BME280;35840;45.982;8.890;2023-02-28T09:29:30;98993.19;;;4.03;76.89
49949;BME280;35840;45.982;8.890;2023-02-28T09:31:57;98990.06;;;3.91;75.49
49949;BME280;35840;45.982;8.890;2023-02-28T09:34:27;98997.38;;;4.04;77.04
49949;BME280;35840;45.982;8.890;2023-02-28T09:36:54;98993.69;;;4.17;77.95
49949;BME280;35840;45.982;8.890;2023-02-28T09:39:22;99004.72;;;4.16;75.89
49949;BME280;35840;45.982;8.890;2023-02-28T09:41:53;98998.19;;;4.06;77.72
49949;BME280;35840;45.982;8.890;2023-02-28T09:47:00;98996.31;;;4.14;76.81
49949;BME280;35840;45.982;8.890;2023-02-28T09:49:35;98998.91;;;4.11;74.89
49949;BME280;35840;45.982;8.890;2023-02-28T09:52:06;98990.47;;;4.09;75.57
49949;BME280;35840;45.982;8.890;2023-02-28T09:54:36;98993.84;;;4.09;73.40
49949;BME280;35840;45.982;8.890;2023-02-28T09:57:13;98991.19;;;4.16;74.45
49949;BME280;35840;45.982;8.890;2023-02-28T10:05:42;98989.69;;;4.41;75.13
49949;BME280;35840;45.982;8.890;2023-02-28T10:08:18;98988.63;;;4.50;73.78
49949;BME280;35840;45.982;8.890;2023-02-28T10:10:50;98983.50;;;4.52;74.99
49949;BME280;35840;45.982;8.890;2023-02-28T10:15:56;98993.41;;;4.62;74.75
49949;BME280;35840;45.982;8.890;2023-02-28T10:18:28;98989.13;;;4.63;73.40
49949;BME280;35840;45.982;8.890;2023-02-28T10:20:57;98978.25;;;4.56;73.21
49949;BME280;35840;45.982;8.890;2023-02-28T10:23:34;98988.28;;;4.64;74.78
49949;BME280;35840;45.982;8.890;2023-02-28T10:26:15;98979.91;;;4.59;71.82
49949;BME280;35840;45.982;8.890;2023-02-28T10:28:43;98984.09;;;4.61;72.67
49949;BME280;35840;45.982;8.890;2023-02-28T10:31:19;98990.78;;;4.65;72.88
49949;BME280;35840;45.982;8.890;2023-02-28T10:33:47;98990.66;;;4.70;73.45
49949;BME280;35840;45.982;8.890;2023-02-28T10:36:16;98985.41;;;4.76;73.40
49949;BME280;35840;45.982;8.890;2023-02-28T10:38:45;98994.56;;;4.83;73.38
49949;BME280;35840;45.982;8.890;2023-02-28T10:41:17;98991.06;;;4.88;72.76
49949;BME280;35840;45.982;8.890;2023-02-28T10:44:11;98990.25;;;4.86;72.53
49949;BME280;35840;45.982;8.890;2023-02-28T10:46:40;98983.63;;;4.78;72.03
49949;BME280;35840;45.982;8.890;2023-02-28T10:49:20;98982.09;;;4.73;73.69
49949;BME280;35840;45.982;8.890;2023-02-28T10:51:52;98986.97;;;4.82;73.21
49949;BME280;35840;45.982;8.890;2023-02-28T10:54:23;98989.19;;;4.93;71.98
49949;BME280;35840;45.982;8.890;2023-02-28T10:57:18;98985.72;;;4.95;72.46
49949;BME280;35840;45.982;8.890;2023-02-28T10:59:50;98985.69;;;4.97;71.70
49949;BME280;35840;45.982;8.890;2023-02-28T11:02:34;98978.69;;;5.05;73.07
49949;BME280;35840;45.982;8.890;2023-02-28T11:05:02;98990.38;;;5.12;72.63
49949;BME280;35840;45.982;8.890;2023-02-28T11:07:29;98973.47;;;5.08;70.71
49949;BME280;35840;45.982;8.890;2023-02-28T11:10:19;98976.56;;;5.20;70.49
49949;BME280;35840;45.982;8.890;2023-02-28T11:12:47;98966.13;;;5.29;71.34
49949;BME280;35840;45.982;8.890;2023-02-28T11:15:33;98966.06;;;5.30;70.68
49949;BME280;35840;45.982;8.890;2023-02-28T11:20:39;98962.00;;;5.25;70.19
49949;BME280;35840;45.982;8.890;2023-02-28T11:23:12;98967.66;;;5.34;70.29
49949;BME280;35840;45.982;8.890;2023-02-28T11:25:47;98958.13;;;5.40;70.47
49949;BME280;35840;45.982;8.890;2023-02-28T11:28:31;98957.41;;;5.36;67.11
49949;BME280;35840;45.982;8.890;2023-02-28T11:31:19;98948.03;;;5.37;67.41
49949;BME280;35840;45.982;8.890;2023-02-28T11:33:54;98949.72;;;5.38;68.10
49949;BME280;35840;45.982;8.890;2023-02-28T11:36:23;98951.88;;;5.50;69.76
49949;BME280;35840;45.982;8.890;2023-02-28T11:39:07;98943.75;;;5.65;69.37
49949;BME280;35840;45.982;8.890;2023-02-28T11:44:29;98937.50;;;5.76;66.83
49949;BME280;35840;45.982;8.890;2023-02-28T11:52:35;98927.69;;;5.63;67.03
49949;BME280;35840;45.982;8.890;2023-02-28T11:55:29;98917.69;;;5.57;65.76
49949;BME280;35840;45.982;8.890;2023-02-28T12:06:25;98899.97;;;5.79;66.42
49949;BME280;35840;45.982;8.890;2023-02-28T12:28:23;98860.44;;;6.18;63.83
49949;BME280;35840;45.982;8.890;2023-02-28T12:34:17;98856.81;;;6.25;62.13
49949;BME280;35840;45.982;8.890;2023-02-28T12:36:45;98858.25;;;6.32;64.19
49949;BME280;35840;45.982;8.890;2023-02-28T12:39:23;98854.13;;;6.52;63.56
49949;BME280;35840;45.982;8.890;2023-02-28T12:41:59;98849.59;;;6.60;62.31
49949;BME280;35840;45.982;8.890;2023-02-28T12:44:45;98831.66;;;6.62;63.28
49949;BME280;35840;45.982;8.890;2023-02-28T12:47:16;98840.97;;;6.63;63.39
49949;BME280;35840;45.982;8.890;2023-02-28T12:49:50;98830.75;;;6.63;63.53
49949;BME280;35840;45.982;8.890;2023-02-28T12:52:25;98824.34;;;6.75;65.69
49949;BME280;35840;45.982;8.890;2023-02-28T12:55:11;98835.31;;;6.78;63.10
49949;BME280;35840;45.982;8.890;2023-02-28T12:57:48;98831.03;;;6.79;62.39
49949;BME280;35840;45.982;8.890;2023-02-28T13:00:19;98829.47;;;6.75;62.30
49949;BME280;35840;45.982;8.890;2023-02-28T13:06:05;98821.22;;;6.68;61.91
49949;BME280;35840;45.982;8.890;2023-02-28T13:11:29;98818.53;;;6.71;61.97
49949;BME280;35840;45.982;8.890;2023-02-28T13:14:04;98811.69;;;6.71;61.50
49949;BME280;35840;45.982;8.890;2023-02-28T13:16:51;98815.38;;;6.64;60.84
49949;BME280;35840;45.982;8.890;2023-02-28T13:19:22;98806.59;;;6.71;62.68
49949;BME280;35840;45.982;8.890;2023-02-28T13:21:50;98799.03;;;6.68;62.25
49949;BME280;35840;45.982;8.890;2023-02-28T13:34:47;98792.31;;;6.66;62.47
49949;BME280;35840;45.982;8.890;2023-02-28T13:37:42;98801.72;;;6.65;62.06
49949;BME280;35840;45.982;8.890;2023-02-28T13:42:47;98778.97;;;6.59;62.02
49949;BME280;35840;45.982;8.890;2023-02-28T13:45:25;98780.44;;;6.65;62.91
49949;BME280;35840;45.982;8.890;2023-02-28T13:47:54;98785.16;;;6.76;60.93
49949;BME280;35840;45.982;8.890;2023-02-28T13:50:37;98772.75;;;6.66;60.29
49949;BME280;35840;45.982;8.890;2023-02-28T13:53:22;98787.03;;;6.70;59.56
49949;BME280;35840;45.982;8.890;2023-02-28T13:56:07;98781.34;;;6.64;59.82
49949;BME280;35840;45.982;8.890;2023-02-28T14:06:37;98773.25;;;6.52;60.34
49949;BME280;35840;45.982;8.890;2023-02-28T14:09:19;98765.47;;;6.55;60.54
49949;BME280;35840;45.982;8.890;2023-02-28T14:11:49;98771.34;;;6.58;60.95
49949;BME280;35840;45.982;8.890;2023-02-28T14:17:06;98765.06;;;6.66;62.02
49949;BME280;35840;45.982;8.890;2023-02-28T14:19:37;98768.09;;;6.76;61.92
49949;BME280;35840;45.982;8.890;2023-02-28T14:30:08;98758.03;;;6.71;59.83
49949;BME280;35840;45.982;8.890;2023-02-28T14:32:50;98752.94;;;6.71;59.94
49949;BME280;35840;45.982;8.890;2023-02-28T14:38:28;98757.28;;;6.69;59.16
49949;BME280;35840;45.982;8.890;2023-02-28T14:40:58;98758.03;;;6.71;59.78
49949;BME280;35840;45.982;8.890;2023-02-28T14:43:28;98747.63;;;6.78;60.81
49949;BME280;35840;45.982;8.890;2023-02-28T14:46:02;98740.63;;;6.81;59.05
49949;BME280;35840;45.982;8.890;2023-02-28T14:48:32;98742.19;;;6.85;58.98
49949;BME280;35840;45.982;8.890;2023-02-28T14:51:01;98737.06;;;6.85;58.50
49949;BME280;35840;45.982;8.890;2023-02-28T14:53:29;98738.31;;;6.97;58.51
49949;BME280;35840;45.982;8.890;2023-02-28T14:55:56;98733.91;;;7.01;58.74
49949;BME280;35840;45.982;8.890;2023-02-28T14:58:30;98737.97;;;7.06;59.21
49949;BME280;35840;45.982;8.890;2023-02-28T15:00:59;98737.06;;;7.07;59.00
49949;BME280;35840;45.982;8.890;2023-02-28T15:03:38;98738.63;;;7.12;58.18
49949;BME280;35840;45.982;8.890;2023-02-28T15:06:13;98733.69;;;7.28;58.36
49949;BME280;35840;45.982;8.890;2023-02-28T15:08:41;98731.34;;;7.44;56.72
49949;BME280;35840;45.982;8.890;2023-02-28T15:11:15;98727.50;;;7.54;56.66
49949;BME280;35840;45.982;8.890;2023-02-28T15:19:26;98723.41;;;7.89;55.41
49949;BME280;35840;45.982;8.890;2023-02-28T15:22:08;98728.81;;;7.83;55.06
49949;BME280;35840;45.982;8.890;2023-02-28T15:24:41;98717.91;;;7.80;55.54
49949;BME280;35840;45.982;8.890;2023-02-28T15:27:15;98703.31;;;7.61;55.48
49949;BME280;35840;45.982;8.890;2023-02-28T15:29:48;98717.63;;;7.65;55.18
49949;BME280;35840;45.982;8.890;2023-02-28T15:32:27;98710.94;;;7.63;56.29
49949;BME280;35840;45.982;8.890;2023-02-28T15:34:56;98708.56;;;7.58;55.96
49949;BME280;35840;45.982;8.890;2023-02-28T15:39:54;98702.22;;;7.67;56.44